createdAt,value
2018-09-19T00:00:53.019Z,4.50
2018-09-19T00:03:20.294Z,5.60
2018-09-19T00:05:47.539Z,5.00
2018-09-19T00:08:14.808Z,5.53
2018-09-19T00:10:42.071Z,5.70
2018-09-19T00:13:09.350Z,5.10
2018-09-19T00:15:36.715Z,5.03
2018-09-19T00:18:03.973Z,5.60
2018-09-19T00:20:31.316Z,5.83
2018-09-19T00:22:58.586Z,5.77
2018-09-19T00:25:25.898Z,5.50
2018-09-19T00:27:53.196Z,5.30
2018-09-19T00:30:20.507Z,4.90
2018-09-19T00:32:48.022Z,5.90
2018-09-19T00:35:15.283Z,4.70
2018-09-19T00:37:42.669Z,6.30
2018-09-19T00:40:10.679Z,5.87
2018-09-19T00:42:38.015Z,5.93
2018-09-19T00:45:05.349Z,5.37
2018-09-19T00:47:32.708Z,5.90
2018-09-19T00:50:00.041Z,6.70
2018-09-19T00:52:27.318Z,5.50
2018-09-19T00:54:54.562Z,5.73
2018-09-19T00:57:21.845Z,5.07
2018-09-19T00:59:49.175Z,5.90
2018-09-19T01:02:16.483Z,5.10
2018-09-19T01:04:43.777Z,5.50
2018-09-19T01:07:11.131Z,5.30
2018-09-19T01:09:38.327Z,5.53
2018-09-19T01:12:05.686Z,5.47
2018-09-19T01:14:32.993Z,6.07
2018-09-19T01:17:00.354Z,5.67
2018-09-19T01:19:27.578Z,6.00
2018-09-19T01:21:54.918Z,4.57
2018-09-19T01:24:22.227Z,6.03
2018-09-19T01:26:49.442Z,6.17
2018-09-19T01:29:16.740Z,4.97
2018-09-19T01:31:44.125Z,6.27
2018-09-19T01:34:11.312Z,5.63
2018-09-19T01:36:38.564Z,5.40
2018-09-19T01:39:06.455Z,5.60
2018-09-19T01:41:33.725Z,6.20
2018-09-19T01:44:00.975Z,6.17
2018-09-19T01:46:28.189Z,5.53
2018-09-19T01:48:55.494Z,6.30
2018-09-19T01:51:22.828Z,6.07
2018-09-19T01:53:50.195Z,5.27
2018-09-19T01:56:17.510Z,6.10
2018-09-19T01:58:44.805Z,5.90
2018-09-19T02:01:12.116Z,6.30
2018-09-19T02:03:39.460Z,6.20
2018-09-19T02:06:06.685Z,5.70
2018-09-19T02:08:33.914Z,5.23
2018-09-19T02:11:01.179Z,5.30
2018-09-19T02:13:28.487Z,6.23
2018-09-19T02:15:55.751Z,5.27
2018-09-19T02:18:23.019Z,6.63
2018-09-19T02:20:50.340Z,5.80
2018-09-19T02:23:17.633Z,5.60
2018-09-19T02:25:44.891Z,5.00
2018-09-19T02:28:12.165Z,4.40
2018-09-19T02:30:39.466Z,5.77
2018-09-19T02:33:06.798Z,6.07
2018-09-19T02:35:34.073Z,4.73
2018-09-19T02:38:01.269Z,6.17
2018-09-19T02:40:28.564Z,5.70
2018-09-19T02:42:55.892Z,5.67
2018-09-19T02:45:23.189Z,5.10
2018-09-19T02:47:50.488Z,5.30
2018-09-19T02:50:17.824Z,6.17
2018-09-19T02:52:49.631Z,5.50
2018-09-19T02:55:16.926Z,6.53
2018-09-19T02:57:44.140Z,6.17
2018-09-19T03:00:11.390Z,5.80
2018-09-19T03:02:38.705Z,6.10
2018-09-19T03:05:05.991Z,6.90
2018-09-19T03:07:33.397Z,5.87
2018-09-19T03:10:00.627Z,7.03
2018-09-19T03:12:28.017Z,6.20
2018-09-19T03:14:55.330Z,5.87
2018-09-19T03:17:22.735Z,7.07
2018-09-19T03:19:49.912Z,6.63
2018-09-19T03:22:17.218Z,6.40
2018-09-19T03:24:44.562Z,6.10
2018-09-19T03:27:11.782Z,5.97
2018-09-19T03:29:39.047Z,5.73
2018-09-19T03:32:06.358Z,6.53
2018-09-19T03:34:33.620Z,5.83
2018-09-19T03:37:00.800Z,5.67
2018-09-19T03:39:28.124Z,6.50
2018-09-19T03:41:55.454Z,6.20
2018-09-19T03:44:22.650Z,5.73
2018-09-19T03:46:49.870Z,6.70
2018-09-19T03:49:17.211Z,5.93
2018-09-19T03:51:44.484Z,6.67
2018-09-19T03:54:11.832Z,5.90
2018-09-19T03:56:39.086Z,5.43
2018-09-19T03:59:06.335Z,6.83
2018-09-19T04:01:33.601Z,7.00
2018-09-19T04:04:00.841Z,5.60
2018-09-19T04:06:28.126Z,5.97
2018-09-19T04:08:55.355Z,6.17
2018-09-19T04:11:22.600Z,5.87
2018-09-19T04:13:49.945Z,5.80
2018-09-19T04:16:17.243Z,6.43
2018-09-19T04:18:44.524Z,5.43
2018-09-19T04:21:11.842Z,5.73
2018-09-19T04:23:39.137Z,6.13
2018-09-19T04:26:06.480Z,6.00
2018-09-19T04:28:33.771Z,6.20
2018-09-19T04:31:00.995Z,6.20
2018-09-19T04:33:28.321Z,7.30
2018-09-19T04:35:56.054Z,7.70
2018-09-19T04:38:23.374Z,6.67
2018-09-19T04:40:50.671Z,6.37
2018-09-19T04:43:17.965Z,6.10
2018-09-19T04:45:45.281Z,7.23
2018-09-19T04:48:12.564Z,6.80
2018-09-19T04:50:39.835Z,10.80
2018-09-19T04:53:06.996Z,10.60
2018-09-19T04:55:34.278Z,8.30
2018-09-19T04:58:01.544Z,6.70
2018-09-19T05:00:28.792Z,6.80
2018-09-19T05:02:56.097Z,6.30
2018-09-19T05:05:23.368Z,6.37
2018-09-19T05:07:50.601Z,7.20
2018-09-19T05:10:17.892Z,6.63
2018-09-19T05:12:45.183Z,6.50
2018-09-19T05:15:12.455Z,6.90
2018-09-19T05:17:39.730Z,6.20
2018-09-19T05:20:07.102Z,7.00
2018-09-19T05:22:34.400Z,7.00
2018-09-19T05:25:01.674Z,6.23
2018-09-19T05:27:28.991Z,7.13
2018-09-19T05:29:56.320Z,6.83
2018-09-19T05:32:23.707Z,6.20
2018-09-19T05:34:50.970Z,6.20
2018-09-19T05:37:18.261Z,7.10
2018-09-19T05:39:45.652Z,6.40
2018-09-19T05:42:12.939Z,6.30
2018-09-19T05:44:40.211Z,6.63
2018-09-19T05:47:07.554Z,5.73
2018-09-19T05:49:34.896Z,6.50
2018-09-19T05:52:02.141Z,6.47
2018-09-19T05:54:29.522Z,6.93
2018-09-19T05:56:56.856Z,6.73
2018-09-19T05:59:24.124Z,5.37
2018-09-19T06:01:51.381Z,7.07
2018-09-19T06:04:18.668Z,6.67
2018-09-19T06:06:46.100Z,6.60
2018-09-19T06:09:13.396Z,6.30
2018-09-19T06:11:40.788Z,6.47
2018-09-19T06:14:08.271Z,6.70
2018-09-19T06:16:35.717Z,6.47
2018-09-19T06:19:02.997Z,6.33
2018-09-19T06:21:30.319Z,6.17
2018-09-19T06:23:57.580Z,6.53
2018-09-19T06:26:24.859Z,6.60
2018-09-19T06:28:52.243Z,6.63
2018-09-19T06:31:19.516Z,6.23
2018-09-19T06:33:46.850Z,7.60
2018-09-19T06:36:14.494Z,6.47
2018-09-19T06:38:41.772Z,6.50
2018-09-19T06:41:09.098Z,6.70
2018-09-19T06:45:00.912Z,7.20
2018-09-19T06:47:28.178Z,6.73
2018-09-19T06:49:55.442Z,7.27
2018-09-19T06:52:22.882Z,6.47
2018-09-19T06:54:50.174Z,6.83
2018-09-19T06:57:17.534Z,6.07
2018-09-19T06:59:44.890Z,7.03
2018-09-19T07:02:12.146Z,6.57
2018-09-19T07:04:39.408Z,12.97
2018-09-19T07:07:06.612Z,7.70
2018-09-19T07:09:33.880Z,6.27
2018-09-19T07:12:01.179Z,6.77
2018-09-19T07:14:28.411Z,6.43
2018-09-19T07:16:55.672Z,6.13
2018-09-19T07:19:23.008Z,5.90
2018-09-19T07:21:50.215Z,6.40
2018-09-19T07:24:17.442Z,5.67
2018-09-19T07:26:44.768Z,6.27
2018-09-19T07:29:12.016Z,5.90
2018-09-19T07:31:39.268Z,5.23
2018-09-19T07:34:06.599Z,5.80
2018-09-19T07:36:33.865Z,5.63
2018-09-19T07:39:01.127Z,5.70
2018-09-19T07:41:28.371Z,5.73
2018-09-19T07:43:55.717Z,6.13
2018-09-19T07:46:23.082Z,6.73
2018-09-19T07:48:50.312Z,4.93
2018-09-19T07:51:17.570Z,7.90
2018-09-19T07:53:44.795Z,7.23
2018-09-19T07:56:12.121Z,6.37
2018-09-19T07:58:39.408Z,5.80
2018-09-19T08:01:06.920Z,6.73
2018-09-19T08:03:34.089Z,6.83
2018-09-19T08:06:01.427Z,6.20
2018-09-19T08:08:28.687Z,5.63
2018-09-19T08:10:55.926Z,5.37
2018-09-19T08:13:23.191Z,5.83
2018-09-19T08:15:50.503Z,5.73
2018-09-19T08:18:17.811Z,4.10
2018-09-19T08:20:45.064Z,4.97
2018-09-19T08:23:12.319Z,5.40
2018-09-19T08:25:39.562Z,4.40
2018-09-19T08:28:06.808Z,4.77
2018-09-19T08:30:34.178Z,5.13
2018-09-19T08:33:01.387Z,5.50
2018-09-19T08:35:28.747Z,4.70
2018-09-19T08:37:55.999Z,5.20
2018-09-19T08:40:23.279Z,4.83
2018-09-19T08:42:50.530Z,4.23
2018-09-19T08:45:17.900Z,5.87
2018-09-19T08:47:45.150Z,4.73
2018-09-19T08:50:12.566Z,4.40
2018-09-19T08:52:39.889Z,3.40
2018-09-19T08:55:07.171Z,3.43
2018-09-19T08:57:34.451Z,3.07
2018-09-19T09:00:01.827Z,3.53
2018-09-19T09:02:29.106Z,2.63
2018-09-19T09:04:56.418Z,3.63
2018-09-19T09:07:23.696Z,3.00
2018-09-19T09:09:50.967Z,2.80
2018-09-19T09:12:18.404Z,3.00
2018-09-19T09:14:45.618Z,3.73
2018-09-19T09:17:12.883Z,2.90
2018-09-19T09:19:40.185Z,3.97
2018-09-19T09:22:07.494Z,3.30
2018-09-19T09:24:34.786Z,3.70
2018-09-19T09:27:02.159Z,2.93
2018-09-19T09:29:29.406Z,3.67
2018-09-19T09:31:56.699Z,3.30
2018-09-19T09:34:24.042Z,3.80
2018-09-19T09:36:51.501Z,2.53
2018-09-19T09:39:18.742Z,3.20
2018-09-19T09:41:46.030Z,3.37
2018-09-19T09:44:13.295Z,3.50
2018-09-19T09:46:40.588Z,2.97
2018-09-19T09:49:07.828Z,2.40
2018-09-19T09:51:35.254Z,3.27
2018-09-19T09:54:02.516Z,2.60
2018-09-19T09:56:29.794Z,2.73
2018-09-19T09:58:57.222Z,2.83
2018-09-19T10:01:24.478Z,3.50
2018-09-19T10:03:51.805Z,2.70
2018-09-19T10:06:19.125Z,2.83
2018-09-19T10:08:46.413Z,2.37
2018-09-19T10:11:13.725Z,2.73
2018-09-19T10:13:41.077Z,2.27
2018-09-19T10:16:08.753Z,2.50
2018-09-19T10:18:36.049Z,2.40
2018-09-19T10:21:03.359Z,2.50
2018-09-19T10:23:30.692Z,2.40
2018-09-19T10:25:57.933Z,2.63
2018-09-19T10:28:25.163Z,2.03
2018-09-19T10:30:52.460Z,2.87
2018-09-19T10:33:19.723Z,2.93
2018-09-19T10:35:47.022Z,2.67
2018-09-19T10:38:14.282Z,2.47
2018-09-19T10:40:41.542Z,2.70
2018-09-19T10:43:08.807Z,2.63
2018-09-19T10:45:36.123Z,2.40
2018-09-19T10:48:03.418Z,2.57
2018-09-19T10:50:30.662Z,3.07
2018-09-19T10:52:57.956Z,3.17
2018-09-19T10:55:25.169Z,2.30
2018-09-19T10:57:52.497Z,3.20
2018-09-19T11:00:19.730Z,2.87
2018-09-19T11:02:46.989Z,2.00
2018-09-19T11:05:14.219Z,2.63
2018-09-19T11:07:41.402Z,2.83
2018-09-19T11:10:08.723Z,2.90
2018-09-19T11:12:36.026Z,2.27
2018-09-19T11:15:03.321Z,2.77
2018-09-19T11:17:30.646Z,3.10
2018-09-19T11:19:57.964Z,2.97
2018-09-19T11:22:25.276Z,2.60
2018-09-19T11:24:52.579Z,2.03
2018-09-19T11:27:19.873Z,2.50
2018-09-19T11:29:47.110Z,2.33
2018-09-19T11:32:14.375Z,2.53
2018-09-19T11:34:41.675Z,2.93
2018-09-19T11:37:08.937Z,2.77
2018-09-19T11:39:36.204Z,2.33
2018-09-19T11:42:03.484Z,2.30
2018-09-19T11:44:30.846Z,2.40
2018-09-19T11:46:58.167Z,2.70
2018-09-19T11:49:25.456Z,2.97
2018-09-19T11:51:52.715Z,2.90
2018-09-19T11:54:20.064Z,3.03
2018-09-19T11:56:47.324Z,2.03
2018-09-19T11:59:14.615Z,2.10
2018-09-19T12:01:41.915Z,2.63
2018-09-19T12:04:09.185Z,2.67
2018-09-19T12:06:36.523Z,2.40
2018-09-19T12:09:05.898Z,2.47
2018-09-19T12:11:33.149Z,2.73
2018-09-19T12:14:00.371Z,2.40
2018-09-19T12:16:27.658Z,2.97
2018-09-19T12:18:54.919Z,2.50
2018-09-19T12:21:22.197Z,3.37
2018-09-19T12:23:49.433Z,2.73
2018-09-19T12:26:16.820Z,7.00
2018-09-19T12:28:44.091Z,3.20
2018-09-19T12:31:11.358Z,2.60
2018-09-19T12:33:38.586Z,2.70
2018-09-19T12:36:06.676Z,3.00
2018-09-19T12:38:33.892Z,3.20
2018-09-19T12:41:01.196Z,3.13
2018-09-19T12:43:28.498Z,3.20
2018-09-19T12:45:55.815Z,2.80
2018-09-19T12:48:23.074Z,3.00
2018-09-19T12:50:50.351Z,2.67
2018-09-19T12:53:17.738Z,3.57
2018-09-19T12:55:49.044Z,2.60
2018-09-19T12:58:16.340Z,3.10
2018-09-19T13:00:43.603Z,3.00
2018-09-19T13:03:10.891Z,2.53
2018-09-19T13:05:38.121Z,2.87
2018-09-19T13:08:05.506Z,3.10
2018-09-19T13:10:32.795Z,2.70
2018-09-19T13:13:00.138Z,3.10
2018-09-19T13:15:27.371Z,3.37
2018-09-19T13:17:54.595Z,3.23
2018-09-19T13:20:21.899Z,2.73
2018-09-19T13:22:49.119Z,3.10
2018-09-19T13:25:16.389Z,3.10
2018-09-19T13:27:43.692Z,3.30
2018-09-19T13:30:11.129Z,3.20
2018-09-19T13:32:38.418Z,3.07
2018-09-19T13:35:05.727Z,3.17
2018-09-19T13:37:32.965Z,3.40
2018-09-19T13:40:00.281Z,3.60
2018-09-19T13:42:27.538Z,3.27
2018-09-19T13:44:54.851Z,2.80
2018-09-19T13:47:22.091Z,3.70
2018-09-19T13:49:54.956Z,3.43
2018-09-19T13:52:22.143Z,2.70
2018-09-19T13:54:49.444Z,2.80
2018-09-19T13:57:16.748Z,3.20
2018-09-19T13:59:44.037Z,3.17
2018-09-19T14:02:11.298Z,2.90
2018-09-19T14:04:38.657Z,3.63
2018-09-19T14:07:06.297Z,3.60
2018-09-19T14:09:33.527Z,3.00
2018-09-19T14:12:00.837Z,2.90
2018-09-19T14:14:28.113Z,3.67
2018-09-19T14:16:55.350Z,3.50
2018-09-19T14:19:22.608Z,3.73
2018-09-19T14:21:49.892Z,3.37
2018-09-19T14:24:17.161Z,3.07
2018-09-19T14:26:44.526Z,10.07
2018-09-19T14:29:11.745Z,3.60
2018-09-19T14:31:39.018Z,3.23
2018-09-19T14:34:06.238Z,3.47
2018-09-19T14:36:33.510Z,3.10
2018-09-19T14:39:00.784Z,4.00
2018-09-19T14:41:28.073Z,3.20
2018-09-19T14:43:55.367Z,3.33
2018-09-19T14:46:22.735Z,2.93
2018-09-19T14:48:50.093Z,3.63
2018-09-19T14:51:17.341Z,3.30
2018-09-19T14:53:44.616Z,3.37
2018-09-19T14:56:11.875Z,3.40
2018-09-19T14:58:39.174Z,3.30
2018-09-19T15:01:06.445Z,3.20
2018-09-19T15:03:33.879Z,3.97
2018-09-19T15:06:01.124Z,3.50
2018-09-19T15:08:28.476Z,3.57
2018-09-19T15:10:55.785Z,3.33
2018-09-19T15:13:23.032Z,3.40
2018-09-19T15:15:50.279Z,2.90
2018-09-19T15:18:17.519Z,3.50
2018-09-19T15:20:44.803Z,3.13
2018-09-19T15:23:12.209Z,16.33
2018-09-19T15:25:39.550Z,3.77
2018-09-19T15:28:06.875Z,3.70
2018-09-19T15:30:34.131Z,3.60
2018-09-19T15:33:01.424Z,3.33
2018-09-19T15:35:28.695Z,3.60
2018-09-19T15:37:55.920Z,3.20
2018-09-19T15:40:23.167Z,3.73
2018-09-19T15:42:50.371Z,4.00
2018-09-19T15:45:17.631Z,3.77
2018-09-19T15:47:44.932Z,3.00
2018-09-19T15:50:12.174Z,4.10
2018-09-19T15:52:39.460Z,3.50
2018-09-19T15:55:06.760Z,3.20
2018-09-19T15:57:34.026Z,3.33
2018-09-19T16:00:01.422Z,3.93
2018-09-19T16:02:28.676Z,3.40
2018-09-19T16:04:55.967Z,3.60
2018-09-19T16:07:23.318Z,3.57
2018-09-19T16:09:50.634Z,3.07
2018-09-19T16:12:17.945Z,3.03
2018-09-19T16:14:45.203Z,3.10
2018-09-19T16:17:12.492Z,14.27
2018-09-19T16:19:39.837Z,7.63
2018-09-19T16:22:07.213Z,3.97
2018-09-19T16:24:34.749Z,4.20
2018-09-19T16:27:01.991Z,3.43
2018-09-19T16:29:29.376Z,3.20
2018-09-19T16:31:56.632Z,3.40
2018-09-19T16:34:23.929Z,3.40
2018-09-19T16:36:51.789Z,3.30
2018-09-19T16:39:19.100Z,4.10
2018-09-19T16:41:46.460Z,4.17
2018-09-19T16:44:13.974Z,4.40
2018-09-19T16:46:41.290Z,3.63
2018-09-19T16:49:09.110Z,3.33
2018-09-19T16:51:36.386Z,3.70
2018-09-19T16:54:03.675Z,4.00
2018-09-19T16:56:30.907Z,3.20
2018-09-19T16:58:58.246Z,4.10
2018-09-19T17:01:25.551Z,3.20
2018-09-19T17:03:52.826Z,3.63
2018-09-19T17:06:20.115Z,3.13
2018-09-19T17:08:47.409Z,3.10
2018-09-19T17:11:14.733Z,3.60
2018-09-19T17:13:41.981Z,3.00
2018-09-19T17:16:09.230Z,3.40
2018-09-19T17:18:36.550Z,4.03
2018-09-19T17:21:03.809Z,3.50
2018-09-19T17:23:31.088Z,3.43
2018-09-19T17:25:58.334Z,2.80
2018-09-19T17:28:25.628Z,3.37
2018-09-19T17:30:52.893Z,2.80
2018-09-19T17:33:20.146Z,4.20
2018-09-19T17:35:47.384Z,3.60
2018-09-19T17:38:14.670Z,3.20
2018-09-19T17:40:41.992Z,4.00
2018-09-19T17:43:09.276Z,4.07
2018-09-19T17:45:36.528Z,3.27
2018-09-19T17:48:03.836Z,4.20
2018-09-19T17:50:31.092Z,3.50
2018-09-19T17:52:58.461Z,3.67
2018-09-19T17:55:25.919Z,3.10
2018-09-19T17:57:53.114Z,3.60
2018-09-19T18:00:20.494Z,3.50
2018-09-19T18:02:49.095Z,3.00
2018-09-19T18:05:18.930Z,3.73
2018-09-19T18:07:46.872Z,3.73
2018-09-19T18:10:14.467Z,3.40
2018-09-19T18:12:41.687Z,3.03
2018-09-19T18:15:09.035Z,2.97
2018-09-19T18:17:36.329Z,3.73
2018-09-19T18:20:03.752Z,3.07
2018-09-19T18:22:31.121Z,4.67
2018-09-19T18:24:58.405Z,4.00
2018-09-19T18:27:25.658Z,3.50
2018-09-19T18:29:52.924Z,3.67
2018-09-19T18:32:20.123Z,3.63
2018-09-19T18:34:47.433Z,3.13
2018-09-19T18:37:14.716Z,3.60
2018-09-19T18:39:41.977Z,3.67
2018-09-19T18:42:09.271Z,3.73
2018-09-19T18:44:36.522Z,3.60
2018-09-19T18:47:03.819Z,3.83
2018-09-19T18:49:31.108Z,3.70
2018-09-19T18:51:58.366Z,3.93
2018-09-19T18:54:25.602Z,4.10
2018-09-19T18:56:52.908Z,3.50
2018-09-19T18:59:20.324Z,3.90
2018-09-19T19:01:47.670Z,4.43
2018-09-19T19:04:14.943Z,4.37
2018-09-19T19:06:42.448Z,4.13
2018-09-19T19:09:10.814Z,3.47
2018-09-19T19:11:38.132Z,4.43
2018-09-19T19:14:05.530Z,3.33
2018-09-19T19:16:32.855Z,3.77
2018-09-19T19:19:00.511Z,3.90
2018-09-19T19:21:27.703Z,3.37
2018-09-19T19:23:54.974Z,3.53
2018-09-19T19:26:22.243Z,3.50
2018-09-19T19:28:49.537Z,3.97
2018-09-19T19:31:16.744Z,3.47
2018-09-19T19:33:43.931Z,4.00
2018-09-19T19:36:11.169Z,4.57
2018-09-19T19:38:38.433Z,4.77
2018-09-19T19:41:05.772Z,3.73
2018-09-19T19:43:33.067Z,3.63
2018-09-19T19:46:00.367Z,4.73
2018-09-19T19:48:27.566Z,3.60
2018-09-19T19:50:54.870Z,5.10
2018-09-19T19:53:22.234Z,4.60
2018-09-19T19:55:49.958Z,4.40
2018-09-19T19:58:18.746Z,4.07
2018-09-19T20:00:50.077Z,4.73
2018-09-19T20:03:17.718Z,4.07
2018-09-19T20:05:47.513Z,4.70
2018-09-19T20:08:15.108Z,4.60
2018-09-19T20:10:43.367Z,4.33
2018-09-19T20:13:10.775Z,4.57
2018-09-19T20:15:38.049Z,4.30
2018-09-19T20:18:05.356Z,4.40
2018-09-19T20:20:32.705Z,4.80
2018-09-19T20:23:00.051Z,4.73
2018-09-19T20:25:27.381Z,4.80
2018-09-19T20:27:54.607Z,5.00
2018-09-19T20:30:21.890Z,5.00
2018-09-19T20:32:49.256Z,5.20
2018-09-19T20:35:16.510Z,6.10
2018-09-19T20:37:43.731Z,5.20
2018-09-19T20:40:10.992Z,4.70
2018-09-19T20:42:38.230Z,5.47
2018-09-19T20:45:05.614Z,6.10
2018-09-19T20:47:32.861Z,5.20
2018-09-19T20:50:00.124Z,6.00
2018-09-19T20:52:27.446Z,6.17
2018-09-19T20:54:54.679Z,6.00
2018-09-19T20:57:22.019Z,6.30
2018-09-19T20:59:49.249Z,5.87
2018-09-19T21:02:16.661Z,6.20
2018-09-19T21:04:43.931Z,6.07
2018-09-19T21:07:11.157Z,5.87
2018-09-19T21:09:38.356Z,6.27
2018-09-19T21:12:05.642Z,5.53
2018-09-19T21:14:32.892Z,5.90
2018-09-19T21:17:00.148Z,6.70
2018-09-19T21:19:27.475Z,6.63
2018-09-19T21:21:54.814Z,5.73
2018-09-19T21:24:22.153Z,6.40
2018-09-19T21:26:49.433Z,6.20
2018-09-19T21:29:16.667Z,5.60
2018-09-19T21:31:44.045Z,6.00
2018-09-19T21:34:11.299Z,6.13
2018-09-19T21:36:38.537Z,6.03
2018-09-19T21:39:07.753Z,5.00
2018-09-19T21:41:34.997Z,6.37
2018-09-19T21:44:02.304Z,6.63
2018-09-19T21:46:29.547Z,6.47
2018-09-19T21:48:56.830Z,6.23
2018-09-19T21:51:24.069Z,6.40
2018-09-19T21:53:51.367Z,6.63
2018-09-19T21:56:18.533Z,5.20
2018-09-19T21:58:45.854Z,5.80
2018-09-19T22:01:13.189Z,5.73
2018-09-19T22:03:41.108Z,6.37
2018-09-19T22:06:08.491Z,6.50
2018-09-19T22:08:36.716Z,5.40
2018-09-19T22:11:04.623Z,6.13
2018-09-19T22:13:31.956Z,6.10
2018-09-19T22:15:59.175Z,5.67
2018-09-19T22:18:26.430Z,6.03
2018-09-19T22:20:53.754Z,5.87
2018-09-19T22:23:20.992Z,6.33
2018-09-19T22:25:48.255Z,4.90
2018-09-19T22:28:15.469Z,5.20
2018-09-19T22:30:42.771Z,5.53
2018-09-19T22:33:10.030Z,5.10
2018-09-19T22:35:37.227Z,5.70
2018-09-19T22:38:04.453Z,6.40
2018-09-19T22:40:31.720Z,6.43
2018-09-19T22:42:59.048Z,5.67
2018-09-19T22:45:26.278Z,5.93
2018-09-19T22:47:53.528Z,5.63
2018-09-19T22:50:20.826Z,6.60
2018-09-19T22:52:48.121Z,5.20
2018-09-19T22:55:15.385Z,6.20
2018-09-19T22:57:42.622Z,6.20
2018-09-19T23:00:09.927Z,7.23
2018-09-19T23:02:37.202Z,6.20
2018-09-19T23:05:04.789Z,6.60
2018-09-19T23:07:32.025Z,6.40
2018-09-19T23:09:59.346Z,6.50
2018-09-19T23:12:26.658Z,6.13
2018-09-19T23:14:53.898Z,7.30
2018-09-19T23:17:21.186Z,6.07
2018-09-19T23:19:48.449Z,6.70
2018-09-19T23:22:15.729Z,6.60
2018-09-19T23:24:43.028Z,5.90
2018-09-19T23:27:10.264Z,6.20
2018-09-19T23:29:37.562Z,6.93
2018-09-19T23:32:04.880Z,7.00
2018-09-19T23:34:32.176Z,6.60
2018-09-19T23:36:59.502Z,6.70
2018-09-19T23:39:26.737Z,6.37
2018-09-19T23:41:54.084Z,6.43
2018-09-19T23:44:21.347Z,7.27
2018-09-19T23:46:48.620Z,7.37
2018-09-19T23:49:15.891Z,7.00
2018-09-19T23:51:43.260Z,7.67
2018-09-19T23:54:10.533Z,6.80
2018-09-19T23:56:37.751Z,6.80
2018-09-19T23:59:05.110Z,6.93
